createdAt,value
2018-03-06T00:01:38.503Z,21.50
2018-03-06T00:04:05.009Z,22.77
2018-03-06T00:06:32.193Z,24.55
2018-03-06T00:08:58.644Z,23.65
2018-03-06T00:11:25.063Z,23.20
2018-03-06T00:13:51.526Z,22.30
2018-03-06T00:16:17.922Z,21.00
2018-03-06T00:18:44.363Z,22.70
2018-03-06T00:21:10.807Z,22.90
2018-03-06T00:23:37.228Z,25.85
2018-03-06T00:26:03.656Z,22.95
2018-03-06T00:28:30.124Z,23.52
2018-03-06T00:30:56.596Z,24.83
2018-03-06T00:33:24.806Z,23.92
2018-03-06T00:35:51.263Z,25.25
2018-03-06T00:38:17.707Z,23.62
2018-03-06T00:40:44.155Z,26.30
2018-03-06T00:43:10.561Z,22.98
2018-03-06T00:45:37.718Z,24.70
2018-03-06T00:48:04.118Z,26.98
2018-03-06T00:50:30.513Z,25.17
2018-03-06T00:52:57.719Z,24.77
2018-03-06T00:55:24.113Z,25.67
2018-03-06T00:57:50.529Z,24.25
2018-03-06T01:00:17.011Z,24.98
2018-03-06T01:02:44.234Z,25.92
2018-03-06T01:05:10.648Z,24.20
2018-03-06T01:07:37.097Z,25.73
2018-03-06T01:10:03.512Z,25.77
2018-03-06T01:12:29.961Z,23.52
2018-03-06T01:14:56.357Z,27.08
2018-03-06T01:17:22.735Z,27.10
2018-03-06T01:19:49.154Z,23.10
2018-03-06T01:22:15.555Z,25.50
2018-03-06T01:24:42.040Z,28.85
2018-03-06T01:27:09.215Z,28.45
2018-03-06T01:29:35.621Z,29.67
2018-03-06T01:32:02.757Z,25.92
2018-03-06T01:34:29.204Z,26.17
2018-03-06T01:36:55.642Z,25.62
2018-03-06T01:39:22.086Z,25.55
2018-03-06T01:41:48.565Z,26.12
2018-03-06T01:44:14.938Z,27.52
2018-03-06T01:46:42.076Z,25.88
2018-03-06T01:49:08.457Z,28.50
2018-03-06T01:51:53.221Z,27.77
2018-03-06T01:54:19.604Z,27.58
2018-03-06T01:56:46.793Z,27.13
2018-03-06T01:59:13.194Z,26.33
2018-03-06T02:01:39.634Z,30.92
2018-03-06T02:04:06.016Z,28.62
2018-03-06T02:06:32.490Z,27.23
2018-03-06T02:08:58.858Z,30.37
2018-03-06T02:11:25.205Z,29.10
2018-03-06T02:13:51.633Z,32.65
2018-03-06T02:16:18.045Z,30.00
2018-03-06T02:18:44.457Z,29.65
2018-03-06T02:21:11.608Z,27.48
2018-03-06T02:23:38.774Z,27.45
2018-03-06T02:26:05.194Z,29.08
2018-03-06T02:28:31.682Z,31.30
2018-03-06T02:30:58.098Z,29.25
2018-03-06T02:33:24.569Z,27.75
2018-03-06T02:35:51.749Z,34.75
2018-03-06T02:38:18.124Z,28.23
2018-03-06T02:40:44.548Z,32.60
2018-03-06T02:43:10.969Z,31.00
2018-03-06T02:45:37.375Z,34.38
2018-03-06T02:48:03.749Z,31.58
2018-03-06T02:50:30.907Z,29.02
2018-03-06T02:52:57.308Z,32.38
2018-03-06T02:55:23.745Z,33.05
2018-03-06T02:57:50.177Z,33.85
2018-03-06T03:00:16.607Z,31.83
2018-03-06T03:02:43.015Z,38.83
2018-03-06T03:05:09.425Z,31.23
2018-03-06T03:07:37.374Z,31.83
2018-03-06T03:10:04.558Z,32.47
2018-03-06T03:12:31.010Z,33.08
2018-03-06T03:14:57.438Z,34.33
2018-03-06T03:17:23.899Z,34.75
2018-03-06T03:19:50.298Z,33.97
2018-03-06T03:22:16.731Z,30.48
2018-03-06T03:24:43.160Z,35.63
2018-03-06T03:27:09.605Z,34.10
2018-03-06T03:29:36.030Z,39.05
2018-03-06T03:32:02.410Z,36.08
2018-03-06T03:34:28.815Z,32.25
2018-03-06T03:36:55.268Z,34.05
2018-03-06T03:39:21.689Z,32.30
2018-03-06T03:41:48.914Z,34.45
2018-03-06T03:44:15.351Z,35.47
2018-03-06T03:46:41.804Z,37.35
2018-03-06T03:49:08.949Z,33.92
2018-03-06T03:51:36.099Z,37.25
2018-03-06T03:54:03.259Z,35.40
2018-03-06T03:56:29.697Z,36.35
2018-03-06T03:58:56.810Z,36.85
2018-03-06T04:01:23.261Z,35.70
2018-03-06T04:03:50.365Z,34.65
2018-03-06T04:06:16.952Z,34.40
2018-03-06T04:08:43.369Z,37.00
2018-03-06T04:11:09.802Z,34.47
2018-03-06T04:13:36.973Z,34.38
2018-03-06T04:16:03.375Z,35.15
2018-03-06T04:18:29.765Z,34.75
2018-03-06T04:20:56.156Z,32.65
2018-03-06T04:23:23.302Z,35.50
2018-03-06T04:25:49.758Z,35.13
2018-03-06T04:28:16.158Z,37.40
2018-03-06T04:30:43.312Z,36.65
2018-03-06T04:33:10.418Z,34.25
2018-03-06T04:35:36.833Z,34.53
2018-03-06T04:38:03.297Z,36.13
2018-03-06T04:40:29.732Z,37.28
2018-03-06T04:42:56.142Z,37.85
2018-03-06T04:45:22.543Z,32.55
2018-03-06T04:47:48.952Z,36.97
2018-03-06T04:50:16.072Z,36.85
2018-03-06T04:52:43.230Z,36.03
2018-03-06T04:55:09.817Z,34.33
2018-03-06T04:57:36.201Z,39.35
2018-03-06T05:00:03.417Z,34.42
2018-03-06T05:02:29.869Z,36.22
2018-03-06T05:04:56.315Z,37.15
2018-03-06T05:07:23.451Z,37.25
2018-03-06T05:09:50.121Z,35.72
2018-03-06T05:12:16.455Z,38.38
2018-03-06T05:14:42.906Z,35.55
2018-03-06T05:17:09.314Z,37.05
2018-03-06T05:19:35.737Z,34.10
2018-03-06T05:22:02.118Z,35.75
2018-03-06T05:24:28.526Z,36.55
2018-03-06T05:26:54.906Z,37.00
2018-03-06T05:29:21.337Z,35.08
2018-03-06T05:31:47.808Z,37.10
2018-03-06T05:34:14.195Z,36.15
2018-03-06T05:36:40.605Z,38.53
2018-03-06T05:39:06.971Z,38.30
2018-03-06T05:41:33.393Z,37.30
2018-03-06T05:43:59.817Z,38.67
2018-03-06T05:46:26.336Z,37.17
2018-03-06T05:48:52.825Z,37.03
2018-03-06T05:51:19.261Z,34.88
2018-03-06T05:53:45.647Z,39.17
2018-03-06T05:56:13.601Z,39.97
2018-03-06T05:58:40.031Z,40.45
2018-03-06T06:01:06.434Z,38.10
2018-03-06T06:03:32.899Z,35.35
2018-03-06T06:05:59.332Z,37.80
2018-03-06T06:08:25.816Z,37.60
2018-03-06T06:10:52.242Z,41.83
2018-03-06T06:13:18.662Z,38.63
2018-03-06T06:15:45.043Z,40.10
2018-03-06T06:18:11.413Z,39.50
2018-03-06T06:20:37.810Z,37.08
2018-03-06T06:23:04.231Z,40.47
2018-03-06T06:25:30.590Z,33.95
2018-03-06T06:27:57.044Z,39.08
2018-03-06T06:30:23.377Z,37.35
2018-03-06T06:32:49.777Z,36.72
2018-03-06T06:35:16.129Z,38.97
2018-03-06T06:37:42.526Z,39.33
2018-03-06T06:40:08.940Z,36.33
2018-03-06T06:42:36.113Z,40.90
2018-03-06T06:45:02.546Z,40.60
2018-03-06T06:47:29.006Z,37.25
2018-03-06T06:49:55.406Z,41.15
2018-03-06T06:52:21.811Z,40.12
2018-03-06T06:54:48.192Z,35.58
2018-03-06T06:57:14.535Z,37.42
2018-03-06T06:59:42.045Z,39.05
2018-03-06T07:02:08.442Z,36.33
2018-03-06T07:04:34.801Z,40.40
2018-03-06T07:07:01.174Z,40.53
2018-03-06T07:09:27.602Z,38.80
2018-03-06T07:11:53.992Z,37.35
2018-03-06T07:14:20.424Z,37.22
2018-03-06T07:16:47.621Z,39.47
2018-03-06T07:19:14.045Z,39.10
2018-03-06T07:21:40.453Z,38.35
2018-03-06T07:24:06.802Z,38.92
2018-03-06T07:26:33.244Z,38.17
2018-03-06T07:28:59.554Z,38.35
2018-03-06T07:31:26.034Z,37.15
2018-03-06T07:33:52.541Z,42.97
2018-03-06T07:36:19.691Z,39.58
2018-03-06T07:38:46.130Z,36.90
2018-03-06T07:41:13.253Z,38.55
2018-03-06T07:43:39.608Z,37.08
2018-03-06T07:46:06.725Z,37.90
2018-03-06T07:48:33.087Z,39.15
2018-03-06T07:51:00.278Z,39.17
2018-03-06T07:53:28.318Z,37.88
2018-03-06T07:55:55.478Z,41.78
2018-03-06T07:58:21.846Z,42.08
2018-03-06T08:00:48.229Z,33.00
2018-03-06T08:03:15.401Z,43.25
2018-03-06T08:05:42.518Z,42.28
2018-03-06T08:08:09.654Z,39.92
2018-03-06T08:10:36.802Z,38.72
2018-03-06T08:13:03.170Z,39.20
2018-03-06T08:15:29.558Z,41.13
2018-03-06T08:17:56.703Z,42.83
2018-03-06T08:20:23.073Z,39.60
2018-03-06T08:22:49.481Z,39.88
2018-03-06T08:25:15.832Z,41.08
2018-03-06T08:27:42.232Z,37.50
2018-03-06T08:30:08.644Z,38.22
2018-03-06T08:32:35.028Z,40.30
2018-03-06T08:35:01.398Z,40.72
2018-03-06T08:37:27.763Z,40.45
2018-03-06T08:39:54.896Z,42.35
2018-03-06T08:42:21.250Z,37.83
2018-03-06T08:44:47.689Z,38.55
2018-03-06T08:47:14.073Z,38.38
2018-03-06T08:49:40.470Z,39.75
2018-03-06T08:52:06.849Z,39.22
2018-03-06T08:54:33.218Z,39.70
2018-03-06T08:56:59.633Z,38.75
2018-03-06T08:59:26.105Z,39.00
2018-03-06T09:01:52.563Z,41.05
2018-03-06T09:04:18.957Z,39.45
2018-03-06T09:06:45.372Z,39.25
2018-03-06T09:09:11.742Z,38.80
2018-03-06T09:11:38.227Z,41.47
2018-03-06T09:14:04.635Z,40.22
2018-03-06T09:16:31.062Z,43.22
2018-03-06T09:18:58.216Z,39.97
2018-03-06T09:21:24.635Z,39.03
2018-03-06T09:23:51.050Z,41.70
2018-03-06T09:26:17.438Z,41.22
2018-03-06T09:28:43.862Z,37.30
2018-03-06T09:31:11.002Z,37.85
2018-03-06T09:33:38.145Z,35.42
2018-03-06T09:36:04.590Z,37.85
2018-03-06T09:38:31.716Z,41.50
2018-03-06T09:40:58.130Z,37.63
2018-03-06T09:43:24.570Z,40.95
2018-03-06T09:45:50.962Z,38.05
2018-03-06T09:48:17.323Z,39.38
2018-03-06T09:50:43.738Z,39.33
2018-03-06T09:53:10.161Z,39.78
2018-03-06T09:55:36.535Z,37.88
2018-03-06T09:58:02.922Z,39.70
2018-03-06T10:00:29.301Z,38.92
2018-03-06T10:02:55.685Z,39.22
2018-03-06T10:05:22.076Z,37.17
2018-03-06T10:07:49.246Z,39.47
2018-03-06T10:10:15.617Z,31.23
2018-03-06T10:12:42.094Z,39.50
2018-03-06T10:15:08.537Z,37.60
2018-03-06T10:17:34.897Z,39.70
2018-03-06T10:20:01.307Z,37.20
2018-03-06T10:22:27.671Z,38.97
2018-03-06T10:24:54.106Z,36.78
2018-03-06T10:27:20.497Z,35.60
2018-03-06T10:29:46.911Z,37.13
2018-03-06T10:32:14.013Z,39.47
2018-03-06T10:34:40.411Z,41.37
2018-03-06T10:37:06.822Z,40.67
2018-03-06T10:39:33.246Z,38.97
2018-03-06T10:41:59.681Z,42.20
2018-03-06T10:44:26.075Z,36.33
2018-03-06T10:46:52.490Z,37.95
2018-03-06T10:49:18.874Z,36.53
2018-03-06T10:51:45.275Z,34.10
2018-03-06T10:54:11.772Z,38.08
2018-03-06T10:56:38.191Z,38.25
2018-03-06T10:59:04.547Z,34.92
2018-03-06T11:01:31.969Z,39.35
2018-03-06T11:03:58.386Z,36.70
2018-03-06T11:06:25.512Z,36.17
2018-03-06T11:08:52.678Z,35.47
2018-03-06T11:11:19.839Z,41.33
2018-03-06T11:13:46.244Z,38.00
2018-03-06T11:16:13.433Z,35.00
2018-03-06T11:18:39.812Z,38.15
2018-03-06T11:21:06.165Z,37.03
2018-03-06T11:23:32.547Z,29.12
2018-03-06T11:25:59.663Z,29.00
2018-03-06T11:28:26.123Z,31.70
2018-03-06T11:30:52.547Z,26.87
2018-03-06T11:33:18.930Z,32.05
2018-03-06T11:35:46.112Z,26.80
2018-03-06T11:38:12.505Z,27.17
2018-03-06T11:40:39.670Z,25.80
2018-03-06T11:43:06.097Z,28.70
2018-03-06T11:45:33.229Z,22.50
2018-03-06T11:47:59.600Z,24.25
2018-03-06T11:50:26.082Z,27.37
2018-03-06T11:52:52.493Z,26.98
2018-03-06T11:55:18.934Z,26.10
2018-03-06T11:57:45.320Z,24.10
2018-03-06T12:00:11.832Z,26.00
2018-03-06T12:02:38.348Z,25.58
2018-03-06T12:05:04.725Z,25.48
2018-03-06T12:07:31.203Z,24.42
2018-03-06T12:09:57.646Z,23.70
2018-03-06T12:12:24.058Z,22.00
2018-03-06T12:14:51.203Z,29.08
2018-03-06T12:17:17.628Z,26.50
2018-03-06T12:19:44.795Z,23.67
2018-03-06T12:22:11.182Z,26.73
2018-03-06T12:24:37.593Z,25.62
2018-03-06T12:27:04.009Z,25.62
2018-03-06T12:29:31.132Z,22.20
2018-03-06T12:31:57.598Z,23.80
2018-03-06T12:34:24.000Z,25.58
2018-03-06T12:36:50.460Z,26.85
2018-03-06T12:39:16.856Z,25.92
2018-03-06T12:41:44.038Z,25.62
2018-03-06T12:44:11.228Z,23.85
2018-03-06T12:46:37.690Z,24.92
2018-03-06T12:49:04.106Z,24.65
2018-03-06T12:51:30.628Z,20.02
2018-03-06T12:53:57.864Z,24.80
2018-03-06T12:56:24.316Z,22.87
2018-03-06T12:58:50.750Z,28.10
2018-03-06T13:01:17.174Z,22.23
2018-03-06T13:03:43.596Z,21.70
2018-03-06T13:06:10.030Z,24.08
2018-03-06T13:08:36.437Z,22.75
2018-03-06T13:11:02.865Z,25.42
2018-03-06T13:13:29.265Z,23.75
2018-03-06T13:15:55.669Z,22.60
2018-03-06T13:18:22.118Z,22.50
2018-03-06T13:20:48.521Z,24.50
2018-03-06T13:23:14.984Z,23.17
2018-03-06T13:25:42.141Z,25.00
2018-03-06T13:28:08.529Z,23.25
2018-03-06T13:30:34.916Z,25.58
2018-03-06T13:33:02.037Z,27.08
2018-03-06T13:35:28.434Z,24.87
2018-03-06T13:37:54.826Z,23.33
2018-03-06T13:40:21.947Z,21.98
2018-03-06T13:42:48.417Z,22.55
2018-03-06T13:45:14.815Z,21.23
2018-03-06T13:47:41.239Z,25.48
2018-03-06T13:50:07.637Z,22.98
2018-03-06T13:52:34.010Z,23.10
2018-03-06T13:55:00.394Z,22.13
2018-03-06T13:57:26.836Z,23.45
2018-03-06T13:59:53.257Z,23.12
2018-03-06T14:02:19.740Z,24.50
2018-03-06T14:04:46.124Z,21.50
2018-03-06T14:07:13.422Z,23.62
2018-03-06T14:09:39.794Z,26.37
2018-03-06T14:12:06.193Z,23.73
2018-03-06T14:14:33.315Z,23.50
2018-03-06T14:16:59.710Z,26.02
2018-03-06T14:19:26.102Z,22.23
2018-03-06T14:21:52.533Z,23.80
2018-03-06T14:24:19.702Z,23.48
2018-03-06T14:26:46.890Z,26.83
2018-03-06T14:29:13.375Z,25.20
2018-03-06T14:31:40.554Z,22.95
2018-03-06T14:34:06.957Z,25.70
2018-03-06T14:36:34.173Z,24.60
2018-03-06T14:39:00.587Z,24.48
2018-03-06T14:41:26.997Z,23.77
2018-03-06T14:43:53.442Z,21.85
2018-03-06T14:46:19.811Z,23.85
2018-03-06T14:48:46.195Z,24.25
2018-03-06T14:51:12.679Z,22.92
2018-03-06T14:53:39.076Z,25.45
2018-03-06T14:56:05.513Z,23.85
2018-03-06T14:58:31.938Z,27.33
2018-03-06T15:00:58.343Z,25.65
2018-03-06T15:03:24.745Z,27.27
2018-03-06T15:05:51.869Z,24.60
2018-03-06T15:08:18.282Z,26.95
2018-03-06T15:10:44.690Z,23.00
2018-03-06T15:13:11.118Z,24.87
2018-03-06T15:15:37.498Z,24.37
2018-03-06T15:18:04.655Z,25.52
2018-03-06T15:20:31.084Z,24.77
2018-03-06T15:22:57.455Z,24.20
2018-03-06T15:25:23.874Z,23.08
2018-03-06T15:27:50.269Z,25.35
2018-03-06T15:30:16.697Z,23.52
2018-03-06T15:32:43.121Z,26.65
2018-03-06T15:35:09.564Z,23.15
2018-03-06T15:37:36.009Z,22.35
2018-03-06T15:40:03.220Z,20.95
2018-03-06T15:42:29.728Z,22.10
2018-03-06T15:44:56.696Z,23.48
2018-03-06T15:47:23.165Z,20.83
2018-03-06T15:49:50.323Z,18.95
2018-03-06T15:52:17.545Z,21.12
2018-03-06T15:54:44.011Z,20.48
2018-03-06T15:57:11.183Z,20.50
2018-03-06T15:59:37.599Z,19.30
2018-03-06T16:02:04.100Z,21.35
2018-03-06T16:04:30.573Z,20.30
2018-03-06T16:06:57.061Z,20.95
2018-03-06T16:09:24.254Z,22.77
2018-03-06T16:11:50.675Z,17.60
2018-03-06T16:14:17.184Z,19.35
2018-03-06T16:16:44.368Z,17.98
2018-03-06T16:19:10.821Z,21.73
2018-03-06T16:21:37.275Z,20.02
2018-03-06T16:24:03.757Z,17.98
2018-03-06T16:26:30.167Z,19.65
2018-03-06T16:28:57.367Z,20.52
2018-03-06T16:31:23.853Z,16.45
2018-03-06T16:33:50.308Z,17.02
2018-03-06T16:36:16.786Z,17.37
2018-03-06T16:38:43.213Z,17.90
2018-03-06T16:41:09.671Z,18.17
2018-03-06T16:43:36.145Z,17.45
2018-03-06T16:46:02.633Z,18.25
2018-03-06T16:48:29.125Z,17.33
2018-03-06T16:50:55.572Z,21.17
2018-03-06T16:53:22.036Z,17.20
2018-03-06T16:55:48.475Z,16.92
2018-03-06T16:58:16.429Z,19.45
2018-03-06T17:00:43.576Z,17.00
2018-03-06T17:03:10.048Z,18.12
2018-03-06T17:05:36.490Z,18.02
2018-03-06T17:08:02.943Z,19.20
2018-03-06T17:10:29.398Z,18.67
2018-03-06T17:12:55.895Z,18.10
2018-03-06T17:15:22.326Z,18.67
2018-03-06T17:17:48.791Z,20.05
2018-03-06T17:20:15.199Z,19.10
2018-03-06T17:22:41.657Z,18.02
2018-03-06T17:25:08.101Z,18.20
2018-03-06T17:27:34.567Z,18.65
2018-03-06T17:30:01.012Z,18.85
2018-03-06T17:32:27.567Z,17.30
2018-03-06T17:34:54.020Z,15.73
2018-03-06T17:37:20.509Z,17.40
2018-03-06T17:39:46.968Z,17.40
2018-03-06T17:42:13.430Z,15.50
2018-03-06T17:44:40.586Z,15.93
2018-03-06T17:47:07.770Z,16.85
2018-03-06T17:49:34.273Z,18.70
2018-03-06T17:52:01.527Z,15.82
2018-03-06T17:54:28.754Z,17.00
2018-03-06T17:56:55.946Z,17.95
2018-03-06T17:59:22.352Z,18.17
2018-03-06T18:01:49.515Z,17.37
2018-03-06T18:04:16.655Z,18.35
2018-03-06T18:06:43.848Z,19.33
2018-03-06T18:09:10.293Z,17.70
2018-03-06T18:11:36.718Z,18.98
2018-03-06T18:14:03.162Z,16.90
2018-03-06T18:16:30.346Z,16.55
2018-03-06T18:18:57.609Z,16.35
2018-03-06T18:21:24.831Z,17.80
2018-03-06T18:23:51.307Z,16.10
2018-03-06T18:26:17.720Z,15.73
2018-03-06T18:28:44.189Z,17.00
2018-03-06T18:31:10.618Z,16.40
2018-03-06T18:33:37.084Z,16.33
2018-03-06T18:36:03.768Z,16.58
2018-03-06T18:38:30.210Z,15.07
2018-03-06T18:40:56.732Z,16.92
2018-03-06T18:43:23.168Z,17.62
2018-03-06T18:45:49.652Z,15.27
2018-03-06T18:48:16.141Z,16.00
2018-03-06T18:51:01.161Z,16.27
2018-03-06T18:53:27.607Z,15.43
2018-03-06T18:55:54.873Z,15.27
2018-03-06T18:58:21.397Z,16.73
2018-03-06T19:01:07.062Z,17.45
2018-03-06T19:03:51.938Z,16.70
2018-03-06T19:09:40.119Z,16.35
2018-03-06T19:12:06.590Z,16.65
2018-03-06T19:14:33.179Z,15.07
2018-03-06T19:17:00.298Z,17.08
2018-03-06T19:19:27.088Z,16.92
2018-03-06T19:21:53.591Z,15.70
2018-03-06T19:24:20.820Z,17.15
2018-03-06T19:26:47.350Z,17.30
2018-03-06T19:29:13.839Z,17.00
2018-03-06T19:31:40.363Z,15.73
2018-03-06T19:34:06.867Z,16.62
2018-03-06T19:36:34.139Z,16.90
2018-03-06T19:39:01.316Z,16.70
2018-03-06T19:41:27.797Z,15.82
2018-03-06T19:43:54.983Z,17.55
2018-03-06T19:46:21.466Z,17.75
2018-03-06T19:48:48.749Z,16.08
2018-03-06T19:51:16.014Z,16.45
2018-03-06T19:53:42.488Z,17.02
2018-03-06T19:56:08.890Z,14.35
2018-03-06T19:58:35.334Z,14.20
2018-03-06T20:01:01.824Z,15.93
2018-03-06T20:03:29.067Z,15.13
2018-03-06T20:05:55.481Z,16.65
2018-03-06T20:08:21.915Z,14.50
2018-03-06T20:10:48.406Z,15.68
2018-03-06T20:13:14.862Z,16.15
2018-03-06T20:15:41.311Z,15.68
2018-03-06T20:18:07.816Z,15.40
2018-03-06T20:20:34.274Z,16.12
2018-03-06T20:23:00.722Z,15.07
2018-03-06T20:25:34.104Z,16.42
2018-03-06T20:28:00.549Z,17.40
2018-03-06T20:30:33.784Z,16.50
2018-03-06T20:33:06.213Z,19.25
2018-03-06T20:35:33.504Z,17.67
2018-03-06T20:37:59.917Z,18.62
2018-03-06T20:40:31.099Z,16.67
2018-03-06T20:42:57.773Z,15.90
2018-03-06T20:45:24.300Z,17.27
2018-03-06T20:47:50.805Z,17.67
2018-03-06T20:50:17.335Z,16.75
2018-03-06T20:52:49.813Z,16.95
2018-03-06T20:55:16.303Z,16.48
2018-03-06T20:57:42.776Z,17.27
2018-03-06T21:00:09.252Z,17.60
2018-03-06T21:02:36.533Z,16.10
2018-03-06T21:05:03.024Z,18.33
2018-03-06T21:07:30.301Z,18.37
2018-03-06T21:09:56.850Z,18.00
2018-03-06T21:12:23.427Z,16.95
2018-03-06T21:14:49.951Z,17.25
2018-03-06T21:17:16.487Z,16.85
2018-03-06T21:19:43.080Z,18.17
2018-03-06T21:22:09.550Z,16.52
2018-03-06T21:24:36.162Z,16.92
2018-03-06T21:27:02.671Z,15.07
2018-03-06T21:29:29.092Z,18.27
2018-03-06T21:32:02.372Z,15.10
2018-03-06T21:34:30.743Z,16.40
2018-03-06T21:36:57.267Z,15.63
2018-03-06T21:39:23.759Z,16.02
2018-03-06T21:41:50.277Z,14.57
2018-03-06T21:44:16.797Z,15.13
2018-03-06T21:46:43.974Z,15.52
2018-03-06T21:49:10.586Z,14.77
2018-03-06T21:51:37.792Z,16.42
2018-03-06T21:54:04.275Z,16.10
2018-03-06T21:56:30.755Z,15.35
2018-03-06T21:58:57.953Z,14.43
2018-03-06T22:01:25.092Z,16.77
2018-03-06T22:03:51.545Z,15.63
2018-03-06T22:06:17.925Z,14.98
2018-03-06T22:08:44.381Z,16.08
2018-03-06T22:11:10.826Z,16.17
2018-03-06T22:13:37.294Z,15.88
2018-03-06T22:16:03.715Z,15.48
2018-03-06T22:18:30.237Z,15.25
2018-03-06T22:20:56.656Z,15.45
2018-03-06T22:23:23.897Z,16.48
2018-03-06T22:25:50.386Z,15.50
2018-03-06T22:28:16.821Z,15.35
2018-03-06T22:30:43.251Z,15.73
2018-03-06T22:33:09.651Z,14.48
2018-03-06T22:35:36.164Z,15.15
2018-03-06T22:38:02.673Z,15.63
2018-03-06T22:40:29.232Z,16.55
2018-03-06T22:42:55.656Z,16.70
2018-03-06T22:45:22.138Z,17.10
2018-03-06T22:47:48.538Z,16.23
2018-03-06T22:50:15.654Z,14.90
2018-03-06T22:52:42.855Z,18.12
2018-03-06T22:55:09.223Z,16.92
2018-03-06T22:57:35.750Z,17.90
2018-03-06T23:00:02.193Z,15.60
2018-03-06T23:02:28.736Z,17.65
2018-03-06T23:04:55.917Z,15.65
2018-03-06T23:07:23.955Z,14.87
2018-03-06T23:09:50.384Z,16.33
2018-03-06T23:12:16.905Z,15.45
2018-03-06T23:14:43.387Z,16.15
2018-03-06T23:17:10.686Z,17.00
2018-03-06T23:19:37.099Z,16.48
2018-03-06T23:22:03.552Z,15.80
2018-03-06T23:24:30.015Z,16.17
2018-03-06T23:26:56.571Z,15.60
2018-03-06T23:29:22.937Z,15.73
2018-03-06T23:31:49.415Z,15.25
2018-03-06T23:34:15.838Z,14.07
2018-03-06T23:36:43.056Z,14.32
2018-03-06T23:39:09.428Z,15.35
2018-03-06T23:41:35.856Z,13.07
2018-03-06T23:44:02.282Z,15.98
2018-03-06T23:46:28.822Z,15.38
2018-03-06T23:48:55.239Z,13.95
2018-03-06T23:51:22.463Z,13.55
2018-03-06T23:53:48.823Z,12.70
2018-03-06T23:56:15.265Z,11.85
2018-03-06T23:58:41.998Z,12.63
